Flugplatz Erfurt

Bericht für EDDE

vom 19.07. um 15:20 UTC

Wind 6 kt aus 310°

Sichtweite 10 km oder mehr

aufgelockert bewölkt in 3600 ft

Temperatur 22.0°C

Taupunkt 14.0°C

Luftfeuchtigkeit 60%

Luftdruck 1015 hPa

keine wesentliche Wetteränderung innerhalb den nächsten 2 Stunden zu erwarten

EDDE 191520Z 31006KT 9999 SCT036 22/14 Q1015 NOSIG

Prognose für EDDE

vom 19.07. um 00:00 UTC

Zwischen 00:00 UTC und 00:00 UTC

Wind 9 kt aus 240°

Sichtweite 10 km oder mehr

gering bewölkt in 4000 ft


Zwischen 00:00 und 00:00 UTC übergehend zu

Wind 4 kt aus 200°

Sichtweite 10 km oder mehr

gering bewölkt in 4000 ft


Am 20.07. zwischen 00:00 und 00:00 UTC übergehend zu

Wind 9 kt aus 190°

Sichtweite 10 km oder mehr

gering bewölkt in 4000 ft

TAF EDDE 191100Z 1912/2012 24009KT 9999 FEW040 BECMG 1918/1921 20004KT BECMG 2007/2009 19009KT
Impressum